Lake Mills, WI (53551)

11:15 AM CDT on April 25, 2017 (GMT -0500)
Lake Mills, East | | Change Station

Elev 836 ft 43.08 °N, 88.89 °W | Updated 41 seconds ago

Clear
Clear
73.6 °F
Feels Like 77 °F
N
1.8
Wind Variable Wind from South
Gusts 2.5 mph

Today
High -- | Low -- °F
--% Chance of Precip.
Yesterday
High -- | Low -- °F
Precip. -- in
Pressure 29.65 in
Visibility 10.0 miles
Clouds Clear
Heat Index 77 °F
Dew Point 41 °F
Humidity 31%
Rainfall 0.00 in
Snow Depth Not available.
5:57 AM 7:50 PM
Waning Crescent, 1% visible
METAR KRYV 251555Z AUTO 18011G15KT 10SM CLR 22/08 A2965 RMK AO2 T02150084
Pressure 29.65 in
Visibility 10.0 miles
Clouds Clear
Heat Index 77 °F
Dew Point 41 °F
Humidity 31%
Rainfall 0.00 in
Snow Depth Not available.
5:57 AM 7:50 PM
Waning Crescent, 1% visible
METAR KRYV 251555Z AUTO 18011G15KT 10SM CLR 22/08 A2965 RMK AO2 T02150084

Get Severe Weather Alerts

Thanks for signing up!

Be on the lookout for a verification email in your inbox.

You'll start receiving the daily forecast at 8 AM.

×

10-Day Weather Forecast

Almanac

Astronomy

Apr. 25, 2017 Rise Set
Actual Time
Civil Twilight
Nautical Twilight
Astronomical Twilight
Moon
Length of Visible Light
Length of Day
Tomorrow will be .
, % of the Moon is Illuminated

Today's Extremes

State Highs State Lows

Community

WunderPhotos

WunderBlog® & News

Nearby

Air Quality

  Air Quality AQ Index Pollutant
Not available.

Snow Depth

Station Depth Elevation

Earthquake Activity

City Distance Mag. Time & Date
Minimum magnitude displayed is 2.5.

Coastal Water Temperatures

Place Temperature

Stations

Nearby Weather Stations

Station Location Temp. Windchill Dew Point Humidity Wind Precip. Elev Updated Type
                   

Watches & Warnings

There are currently no watches in effect.